sensor_id;sensor_type;location;lat;lon;timestamp;pressure;altitude;pressure_sealevel;temperature;humidity
58373;BME280;44177;43.356;27.672;2023-07-29T00:01:25;97960.13;;;16.03;87.90
58373;BME280;44177;43.356;27.672;2023-07-29T00:03:51;97953.41;;;15.93;87.13
58373;BME280;44177;43.356;27.672;2023-07-29T00:06:16;97956.91;;;15.87;88.10
58373;BME280;44177;43.356;27.672;2023-07-29T00:08:42;97954.16;;;15.87;89.52
58373;BME280;44177;43.356;27.672;2023-07-29T00:11:07;97955.78;;;15.95;89.26
58373;BME280;44177;43.356;27.672;2023-07-29T00:13:33;97960.88;;;16.00;88.12
58373;BME280;44177;43.356;27.672;2023-07-29T00:15:58;97960.13;;;16.14;87.85
58373;BME280;44177;43.356;27.672;2023-07-29T00:18:24;97954.22;;;16.08;86.50
58373;BME280;44177;43.356;27.672;2023-07-29T00:20:51;97951.44;;;15.98;86.95
58373;BME280;44177;43.356;27.672;2023-07-29T00:23:20;97946.34;;;15.92;87.67
58373;BME280;44177;43.356;27.672;2023-07-29T00:25:46;97925.81;;;15.75;88.73
58373;BME280;44177;43.356;27.672;2023-07-29T00:28:12;97943.56;;;15.89;89.44
58373;BME280;44177;43.356;27.672;2023-07-29T00:30:38;97938.06;;;15.89;88.38
58373;BME280;44177;43.356;27.672;2023-07-29T00:33:03;97916.84;;;15.86;88.25
58373;BME280;44177;43.356;27.672;2023-07-29T00:35:29;97945.19;;;16.12;87.40
58373;BME280;44177;43.356;27.672;2023-07-29T00:37:54;97933.81;;;16.17;86.78
58373;BME280;44177;43.356;27.672;2023-07-29T00:40:21;97934.19;;;16.12;85.63
58373;BME280;44177;43.356;27.672;2023-07-29T00:42:48;97931.00;;;15.95;86.34
58373;BME280;44177;43.356;27.672;2023-07-29T00:45:16;97935.31;;;15.85;86.94
58373;BME280;44177;43.356;27.672;2023-07-29T00:47:42;97928.66;;;15.90;87.02
58373;BME280;44177;43.356;27.672;2023-07-29T00:50:11;97922.34;;;15.86;86.71
58373;BME280;44177;43.356;27.672;2023-07-29T00:52:39;97920.72;;;15.77;87.01
58373;BME280;44177;43.356;27.672;2023-07-29T00:55:06;97922.25;;;15.71;87.21
58373;BME280;44177;43.356;27.672;2023-07-29T00:57:32;97923.84;;;15.72;87.64
58373;BME280;44177;43.356;27.672;2023-07-29T00:59:59;97915.56;;;15.61;87.05
58373;BME280;44177;43.356;27.672;2023-07-29T01:02:26;97914.41;;;15.66;86.43
58373;BME280;44177;43.356;27.672;2023-07-29T01:04:53;97919.13;;;15.76;86.25
58373;BME280;44177;43.356;27.672;2023-07-29T01:10:22;97925.09;;;15.89;85.31
58373;BME280;44177;43.356;27.672;2023-07-29T01:16:38;97909.78;;;15.92;84.20
58373;BME280;44177;43.356;27.672;2023-07-29T01:19:06;97899.56;;;15.85;83.62
58373;BME280;44177;43.356;27.672;2023-07-29T01:21:35;97905.09;;;15.96;83.58
58373;BME280;44177;43.356;27.672;2023-07-29T01:24:02;97909.00;;;15.95;82.68
58373;BME280;44177;43.356;27.672;2023-07-29T01:26:29;97908.59;;;15.97;82.28
58373;BME280;44177;43.356;27.672;2023-07-29T01:28:56;97901.94;;;15.94;82.40
58373;BME280;44177;43.356;27.672;2023-07-29T01:31:31;97901.16;;;15.90;82.19
58373;BME280;44177;43.356;27.672;2023-07-29T01:34:06;97912.91;;;15.87;81.45
58373;BME280;44177;43.356;27.672;2023-07-29T01:36:37;97897.94;;;15.81;81.83
58373;BME280;44177;43.356;27.672;2023-07-29T01:39:06;97906.56;;;15.83;81.68
58373;BME280;44177;43.356;27.672;2023-07-29T01:41:34;97905.03;;;15.82;81.55
58373;BME280;44177;43.356;27.672;2023-07-29T01:44:01;97905.78;;;15.78;81.78
58373;BME280;44177;43.356;27.672;2023-07-29T01:46:27;97903.44;;;15.77;81.24
58373;BME280;44177;43.356;27.672;2023-07-29T01:48:52;97905.00;;;15.74;80.96
58373;BME280;44177;43.356;27.672;2023-07-29T01:51:19;97902.59;;;15.69;81.61
58373;BME280;44177;43.356;27.672;2023-07-29T01:53:45;97902.59;;;15.62;84.94
58373;BME280;44177;43.356;27.672;2023-07-29T01:56:11;97904.94;;;15.67;85.43
58373;BME280;44177;43.356;27.672;2023-07-29T01:58:37;97907.34;;;15.72;84.15
58373;BME280;44177;43.356;27.672;2023-07-29T02:01:03;97908.13;;;15.76;83.89
58373;BME280;44177;43.356;27.672;2023-07-29T02:03:35;97902.63;;;15.73;82.94
58373;BME280;44177;43.356;27.672;2023-07-29T02:06:00;97905.75;;;15.68;82.75
58373;BME280;44177;43.356;27.672;2023-07-29T02:08:26;97908.50;;;15.68;82.85
58373;BME280;44177;43.356;27.672;2023-07-29T02:10:51;97900.28;;;15.71;83.87
58373;BME280;44177;43.356;27.672;2023-07-29T02:13:17;97908.50;;;15.64;85.41
58373;BME280;44177;43.356;27.672;2023-07-29T02:15:43;97898.25;;;15.57;86.02
58373;BME280;44177;43.356;27.672;2023-07-29T02:18:09;97888.47;;;15.67;85.65
58373;BME280;44177;43.356;27.672;2023-07-29T02:20:34;97895.50;;;15.61;85.75
58373;BME280;44177;43.356;27.672;2023-07-29T02:23:01;97908.13;;;15.80;85.82
58373;BME280;44177;43.356;27.672;2023-07-29T02:25:26;97890.84;;;15.76;84.90
58373;BME280;44177;43.356;27.672;2023-07-29T02:27:52;97902.69;;;15.84;83.89
58373;BME280;44177;43.356;27.672;2023-07-29T02:30:17;97906.56;;;15.75;83.23
58373;BME280;44177;43.356;27.672;2023-07-29T02:32:43;97903.78;;;15.68;84.13
58373;BME280;44177;43.356;27.672;2023-07-29T02:35:08;97905.00;;;15.74;83.47
58373;BME280;44177;43.356;27.672;2023-07-29T02:37:35;97903.03;;;15.78;83.04
58373;BME280;44177;43.356;27.672;2023-07-29T02:40:00;97882.97;;;15.67;82.58
58373;BME280;44177;43.356;27.672;2023-07-29T02:42:26;97908.94;;;15.73;83.34
58373;BME280;44177;43.356;27.672;2023-07-29T02:44:51;97910.53;;;15.82;82.66
58373;BME280;44177;43.356;27.672;2023-07-29T02:47:17;97911.28;;;15.78;82.74
58373;BME280;44177;43.356;27.672;2023-07-29T02:49:42;97910.53;;;15.82;82.31
58373;BME280;44177;43.356;27.672;2023-07-29T02:52:08;97906.19;;;15.81;81.82
58373;BME280;44177;43.356;27.672;2023-07-29T02:54:33;97914.81;;;15.83;82.09
58373;BME280;44177;43.356;27.672;2023-07-29T02:56:59;97920.75;;;15.85;81.68
58373;BME280;44177;43.356;27.672;2023-07-29T02:59:25;97916.78;;;15.75;81.59
58373;BME280;44177;43.356;27.672;2023-07-29T03:01:52;97910.41;;;15.56;81.80
58373;BME280;44177;43.356;27.672;2023-07-29T03:04:21;97909.22;;;15.46;82.45
58373;BME280;44177;43.356;27.672;2023-07-29T03:06:48;97910.03;;;15.54;82.84
58373;BME280;44177;43.356;27.672;2023-07-29T03:09:14;97907.28;;;15.51;82.13
58373;BME280;44177;43.356;27.672;2023-07-29T03:11:39;97911.97;;;15.50;82.40
58373;BME280;44177;43.356;27.672;2023-07-29T03:14:05;97913.59;;;15.69;81.92
58373;BME280;44177;43.356;27.672;2023-07-29T03:16:31;97908.13;;;15.80;82.11
58373;BME280;44177;43.356;27.672;2023-07-29T03:18:58;97910.94;;;15.84;81.92
58373;BME280;44177;43.356;27.672;2023-07-29T03:21:25;97907.41;;;15.90;81.39
58373;BME280;44177;43.356;27.672;2023-07-29T03:23:51;97904.25;;;15.85;81.17
58373;BME280;44177;43.356;27.672;2023-07-29T03:26:17;97909.75;;;15.85;81.26
58373;BME280;44177;43.356;27.672;2023-07-29T03:28:43;97899.56;;;15.92;81.39
58373;BME280;44177;43.356;27.672;2023-07-29T03:31:09;97903.53;;;16.02;81.25
58373;BME280;44177;43.356;27.672;2023-07-29T03:33:35;97907.09;;;16.14;80.71
58373;BME280;44177;43.356;27.672;2023-07-29T03:36:01;97916.53;;;16.20;80.03
58373;BME280;44177;43.356;27.672;2023-07-29T03:38:26;97920.06;;;16.20;80.01
58373;BME280;44177;43.356;27.672;2023-07-29T03:40:52;97909.44;;;16.19;79.66
58373;BME280;44177;43.356;27.672;2023-07-29T03:43:18;97918.47;;;16.26;79.83
58373;BME280;44177;43.356;27.672;2023-07-29T03:45:44;97914.16;;;16.22;80.28
58373;BME280;44177;43.356;27.672;2023-07-29T03:48:10;97912.19;;;16.19;80.23
58373;BME280;44177;43.356;27.672;2023-07-29T03:50:36;97914.53;;;16.17;81.38
58373;BME280;44177;43.356;27.672;2023-07-29T03:53:04;97913.38;;;16.14;82.04
58373;BME280;44177;43.356;27.672;2023-07-29T03:55:31;97920.06;;;16.24;82.71
58373;BME280;44177;43.356;27.672;2023-07-29T03:57:58;97921.63;;;16.29;83.76
58373;BME280;44177;43.356;27.672;2023-07-29T04:00:23;97925.56;;;16.38;83.94
58373;BME280;44177;43.356;27.672;2023-07-29T04:02:49;97916.13;;;16.47;83.86
58373;BME280;44177;43.356;27.672;2023-07-29T04:05:17;97902.78;;;16.41;83.46
58373;BME280;44177;43.356;27.672;2023-07-29T04:07:44;97924.78;;;16.70;83.65
58373;BME280;44177;43.356;27.672;2023-07-29T04:10:14;97917.31;;;16.82;83.20
58373;BME280;44177;43.356;27.672;2023-07-29T04:12:39;97919.28;;;16.99;82.55
58373;BME280;44177;43.356;27.672;2023-07-29T04:15:05;97930.28;;;17.10;82.63
58373;BME280;44177;43.356;27.672;2023-07-29T04:17:31;97924.75;;;17.25;83.10
58373;BME280;44177;43.356;27.672;2023-07-29T04:19:56;97935.34;;;17.33;81.38
58373;BME280;44177;43.356;27.672;2023-07-29T04:22:22;97931.78;;;17.44;81.51
58373;BME280;44177;43.356;27.672;2023-07-29T04:24:47;97927.78;;;17.59;80.58
58373;BME280;44177;43.356;27.672;2023-07-29T04:27:13;97928.88;;;17.76;80.45
58373;BME280;44177;43.356;27.672;2023-07-29T04:29:39;97930.03;;;17.86;78.40
58373;BME280;44177;43.356;27.672;2023-07-29T04:32:05;97918.16;;;17.93;77.87
58373;BME280;44177;43.356;27.672;2023-07-29T04:34:31;97920.50;;;18.05;76.98
58373;BME280;44177;43.356;27.672;2023-07-29T04:36:57;97934.09;;;18.34;76.14
58373;BME280;44177;43.356;27.672;2023-07-29T04:39:22;97934.78;;;18.53;75.12
58373;BME280;44177;43.356;27.672;2023-07-29T04:41:48;97951.94;;;18.75;75.20
58373;BME280;44177;43.356;27.672;2023-07-29T04:44:13;97942.78;;;18.85;75.00
58373;BME280;44177;43.356;27.672;2023-07-29T04:46:39;97944.28;;;18.97;74.43
58373;BME280;44177;43.356;27.672;2023-07-29T04:49:05;97944.97;;;19.08;74.90
58373;BME280;44177;43.356;27.672;2023-07-29T04:51:30;97953.09;;;19.27;75.01
58373;BME280;44177;43.356;27.672;2023-07-29T04:53:57;97955.22;;;19.46;74.46
58373;BME280;44177;43.356;27.672;2023-07-29T04:56:24;97946.47;;;19.55;72.82
58373;BME280;44177;43.356;27.672;2023-07-29T04:58:49;97939.91;;;19.38;72.15
58373;BME280;44177;43.356;27.672;2023-07-29T05:01:15;97957.59;;;19.48;71.79
58373;BME280;44177;43.356;27.672;2023-07-29T05:03:40;97957.91;;;19.53;72.02
58373;BME280;44177;43.356;27.672;2023-07-29T05:06:11;97948.03;;;19.56;71.67
58373;BME280;44177;43.356;27.672;2023-07-29T05:08:37;97950.66;;;19.67;71.19
58373;BME280;44177;43.356;27.672;2023-07-29T05:11:03;97953.72;;;19.76;70.65
58373;BME280;44177;43.356;27.672;2023-07-29T05:13:28;97954.41;;;19.84;71.50
58373;BME280;44177;43.356;27.672;2023-07-29T05:15:54;97954.09;;;20.09;71.37
58373;BME280;44177;43.356;27.672;2023-07-29T05:18:19;97955.47;;;20.25;70.47
58373;BME280;44177;43.356;27.672;2023-07-29T05:20:46;97949.19;;;20.48;69.30
58373;BME280;44177;43.356;27.672;2023-07-29T05:23:12;97954.00;;;20.71;68.08
58373;BME280;44177;43.356;27.672;2023-07-29T05:25:37;97957.88;;;21.01;66.44
58373;BME280;44177;43.356;27.672;2023-07-29T05:28:03;97949.16;;;21.23;66.19
58373;BME280;44177;43.356;27.672;2023-07-29T05:30:29;97951.53;;;21.44;63.52
58373;BME280;44177;43.356;27.672;2023-07-29T05:33:03;97951.84;;;21.70;58.84
58373;BME280;44177;43.356;27.672;2023-07-29T05:35:29;97956.66;;;21.86;58.30
58373;BME280;44177;43.356;27.672;2023-07-29T05:37:55;97952.41;;;22.02;57.73
58373;BME280;44177;43.356;27.672;2023-07-29T05:40:20;97939.31;;;22.19;57.05
58373;BME280;44177;43.356;27.672;2023-07-29T05:42:46;97951.22;;;22.36;57.17
58373;BME280;44177;43.356;27.672;2023-07-29T05:45:13;97951.28;;;22.52;57.25
58373;BME280;44177;43.356;27.672;2023-07-29T05:47:38;97954.31;;;22.58;55.07
58373;BME280;44177;43.356;27.672;2023-07-29T05:50:04;97954.69;;;22.77;54.94
58373;BME280;44177;43.356;27.672;2023-07-29T05:52:33;97954.56;;;22.97;53.57
58373;BME280;44177;43.356;27.672;2023-07-29T05:54:59;97958.41;;;23.20;54.10
58373;BME280;44177;43.356;27.672;2023-07-29T05:57:25;97954.13;;;23.31;48.83
58373;BME280;44177;43.356;27.672;2023-07-29T05:59:51;97961.88;;;23.53;48.84
58373;BME280;44177;43.356;27.672;2023-07-29T06:02:16;97959.34;;;23.72;47.10
58373;BME280;44177;43.356;27.672;2023-07-29T06:04:42;97952.47;;;23.89;47.30
58373;BME280;44177;43.356;27.672;2023-07-29T06:07:07;97957.91;;;24.09;45.27
58373;BME280;44177;43.356;27.672;2023-07-29T06:09:33;97949.31;;;24.29;45.99
58373;BME280;44177;43.356;27.672;2023-07-29T06:11:59;97942.75;;;24.49;46.86
58373;BME280;44177;43.356;27.672;2023-07-29T06:14:24;97945.75;;;24.81;45.42
58373;BME280;44177;43.356;27.672;2023-07-29T06:16:50;97948.84;;;24.96;42.67
58373;BME280;44177;43.356;27.672;2023-07-29T06:19:15;97944.66;;;25.13;41.88
58373;BME280;44177;43.356;27.672;2023-07-29T06:21:41;97942.84;;;25.19;42.64
58373;BME280;44177;43.356;27.672;2023-07-29T06:24:07;97954.59;;;25.49;40.79
58373;BME280;44177;43.356;27.672;2023-07-29T06:26:32;97948.41;;;25.54;38.57
58373;BME280;44177;43.356;27.672;2023-07-29T06:28:58;97952.97;;;25.83;38.26
58373;BME280;44177;43.356;27.672;2023-07-29T06:31:24;97953.28;;;26.08;37.01
58373;BME280;44177;43.356;27.672;2023-07-29T06:33:49;97947.00;;;26.26;37.76
58373;BME280;44177;43.356;27.672;2023-07-29T06:36:15;97950.94;;;26.47;37.14
58373;BME280;44177;43.356;27.672;2023-07-29T06:38:40;97946.19;;;26.66;37.48
58373;BME280;44177;43.356;27.672;2023-07-29T06:41:07;97941.75;;;26.78;38.13
58373;BME280;44177;43.356;27.672;2023-07-29T06:43:32;97942.53;;;26.97;37.88
58373;BME280;44177;43.356;27.672;2023-07-29T06:45:58;97941.94;;;27.11;37.21
58373;BME280;44177;43.356;27.672;2023-07-29T06:48:23;97947.44;;;27.43;35.01
58373;BME280;44177;43.356;27.672;2023-07-29T06:50:49;97952.97;;;27.71;35.93
58373;BME280;44177;43.356;27.672;2023-07-29T06:53:20;97948.44;;;27.83;36.12
58373;BME280;44177;43.356;27.672;2023-07-29T06:55:46;97956.66;;;28.14;35.31
58373;BME280;44177;43.356;27.672;2023-07-29T06:58:12;97959.69;;;28.35;34.49
58373;BME280;44177;43.356;27.672;2023-07-29T07:00:37;97956.31;;;28.55;32.55
58373;BME280;44177;43.356;27.672;2023-07-29T07:03:03;97957.59;;;28.88;32.60
58373;BME280;44177;43.356;27.672;2023-07-29T07:05:28;97959.25;;;28.94;31.00
58373;BME280;44177;43.356;27.672;2023-07-29T07:07:54;97949.09;;;29.21;31.27
58373;BME280;44177;43.356;27.672;2023-07-29T07:10:19;97962.34;;;29.45;31.74
58373;BME280;44177;43.356;27.672;2023-07-29T07:12:45;97945.03;;;29.61;28.93
58373;BME280;44177;43.356;27.672;2023-07-29T07:15:11;97950.19;;;29.93;30.65
58373;BME280;44177;43.356;27.672;2023-07-29T07:17:37;97959.69;;;29.96;31.69
58373;BME280;44177;43.356;27.672;2023-07-29T07:20:03;97956.78;;;30.20;32.15
58373;BME280;44177;43.356;27.672;2023-07-29T07:22:28;97958.69;;;30.44;31.43
58373;BME280;44177;43.356;27.672;2023-07-29T07:24:54;97962.66;;;30.52;31.42
58373;BME280;44177;43.356;27.672;2023-07-29T07:27:20;97960.94;;;30.75;29.86
58373;BME280;44177;43.356;27.672;2023-07-29T07:29:45;97953.06;;;31.00;31.94
58373;BME280;44177;43.356;27.672;2023-07-29T07:32:11;97967.53;;;31.28;32.01
58373;BME280;44177;43.356;27.672;2023-07-29T07:34:36;97954.06;;;31.38;31.41
58373;BME280;44177;43.356;27.672;2023-07-29T07:37:02;97948.66;;;31.34;32.49
58373;BME280;44177;43.356;27.672;2023-07-29T07:39:29;97950.03;;;31.92;31.51
58373;BME280;44177;43.356;27.672;2023-07-29T07:41:54;97943.78;;;32.14;29.28
58373;BME280;44177;43.356;27.672;2023-07-29T07:44:20;97948.66;;;32.13;28.93
58373;BME280;44177;43.356;27.672;2023-07-29T07:46:46;97938.31;;;32.31;27.95
58373;BME280;44177;43.356;27.672;2023-07-29T07:49:12;97939.88;;;32.38;27.98
58373;BME280;44177;43.356;27.672;2023-07-29T07:51:38;97940.06;;;32.23;28.44
58373;BME280;44177;43.356;27.672;2023-07-29T07:54:04;97943.97;;;32.37;27.75
58373;BME280;44177;43.356;27.672;2023-07-29T07:56:30;97939.06;;;32.69;27.22
58373;BME280;44177;43.356;27.672;2023-07-29T07:58:55;97935.41;;;32.57;26.42
58373;BME280;44177;43.356;27.672;2023-07-29T08:01:21;97934.41;;;32.66;27.45
58373;BME280;44177;43.356;27.672;2023-07-29T08:03:46;97939.22;;;32.92;26.67
58373;BME280;44177;43.356;27.672;2023-07-29T08:06:12;97938.47;;;33.03;26.28
58373;BME280;44177;43.356;27.672;2023-07-29T08:08:37;97933.97;;;33.34;25.39
58373;BME280;44177;43.356;27.672;2023-07-29T08:11:03;97933.00;;;33.54;24.36
58373;BME280;44177;43.356;27.672;2023-07-29T08:13:29;97924.84;;;33.90;25.29
58373;BME280;44177;43.356;27.672;2023-07-29T08:15:54;97927.88;;;33.69;25.36
58373;BME280;44177;43.356;27.672;2023-07-29T08:18:20;97921.72;;;33.60;24.54
58373;BME280;44177;43.356;27.672;2023-07-29T08:20:57;97921.25;;;33.95;23.42
58373;BME280;44177;43.356;27.672;2023-07-29T08:23:33;97904.75;;;34.22;24.93
58373;BME280;44177;43.356;27.672;2023-07-29T08:26:00;97915.78;;;34.66;24.22
58373;BME280;44177;43.356;27.672;2023-07-29T08:28:34;97911.94;;;34.57;24.95
58373;BME280;44177;43.356;27.672;2023-07-29T08:31:00;97903.91;;;34.73;24.05
58373;BME280;44177;43.356;27.672;2023-07-29T08:33:26;97896.63;;;34.94;22.72
58373;BME280;44177;43.356;27.672;2023-07-29T08:35:52;97898.56;;;35.22;23.56
58373;BME280;44177;43.356;27.672;2023-07-29T08:38:18;97899.75;;;35.44;22.39
58373;BME280;44177;43.356;27.672;2023-07-29T08:43:39;97883.22;;;35.84;22.14
58373;BME280;44177;43.356;27.672;2023-07-29T08:46:05;97888.13;;;36.14;22.07
58373;BME280;44177;43.356;27.672;2023-07-29T08:48:40;97884.69;;;35.97;21.79
58373;BME280;44177;43.356;27.672;2023-07-29T08:51:11;97887.41;;;36.08;21.11
58373;BME280;44177;43.356;27.672;2023-07-29T08:53:37;97882.56;;;36.28;21.88
58373;BME280;44177;43.356;27.672;2023-07-29T08:56:04;97881.91;;;36.46;22.35
58373;BME280;44177;43.356;27.672;2023-07-29T08:58:31;97871.94;;;36.59;22.62
58373;BME280;44177;43.356;27.672;2023-07-29T09:00:57;97872.75;;;36.78;20.78
58373;BME280;44177;43.356;27.672;2023-07-29T09:03:22;97868.47;;;36.91;22.68
58373;BME280;44177;43.356;27.672;2023-07-29T09:05:48;97873.81;;;36.75;21.17
58373;BME280;44177;43.356;27.672;2023-07-29T09:08:14;97873.25;;;36.33;20.83
58373;BME280;44177;43.356;27.672;2023-07-29T09:10:41;97860.03;;;36.41;20.99
58373;BME280;44177;43.356;27.672;2023-07-29T09:13:07;97854.34;;;36.85;21.76
58373;BME280;44177;43.356;27.672;2023-07-29T09:15:35;97848.38;;;37.08;20.79
58373;BME280;44177;43.356;27.672;2023-07-29T09:18:11;97858.06;;;36.74;20.91
58373;BME280;44177;43.356;27.672;2023-07-29T09:20:37;97855.44;;;37.01;21.59
58373;BME280;44177;43.356;27.672;2023-07-29T09:23:03;97850.81;;;37.17;21.39
58373;BME280;44177;43.356;27.672;2023-07-29T09:25:32;97860.78;;;37.24;22.49
58373;BME280;44177;43.356;27.672;2023-07-29T09:27:59;97858.81;;;37.70;21.81
58373;BME280;44177;43.356;27.672;2023-07-29T09:30:26;97853.75;;;37.63;21.08
58373;BME280;44177;43.356;27.672;2023-07-29T09:32:56;97850.66;;;37.80;21.06
58373;BME280;44177;43.356;27.672;2023-07-29T09:35:22;97861.25;;;37.80;21.17
58373;BME280;44177;43.356;27.672;2023-07-29T09:37:48;97855.09;;;37.43;19.83
58373;BME280;44177;43.356;27.672;2023-07-29T09:40:14;97857.69;;;37.92;20.84
58373;BME280;44177;43.356;27.672;2023-07-29T09:42:50;97861.31;;;37.93;21.23
58373;BME280;44177;43.356;27.672;2023-07-29T09:47:46;97845.56;;;38.05;21.27
58373;BME280;44177;43.356;27.672;2023-07-29T09:50:12;97851.50;;;38.07;21.73
58373;BME280;44177;43.356;27.672;2023-07-29T09:52:38;97846.47;;;38.41;20.93
58373;BME280;44177;43.356;27.672;2023-07-29T09:55:04;97841.97;;;38.72;20.19
58373;BME280;44177;43.356;27.672;2023-07-29T09:57:31;97831.13;;;38.84;19.55
58373;BME280;44177;43.356;27.672;2023-07-29T09:59:57;97835.25;;;38.96;20.80
58373;BME280;44177;43.356;27.672;2023-07-29T10:02:23;97833.59;;;39.01;20.01
58373;BME280;44177;43.356;27.672;2023-07-29T10:04:52;97840.34;;;38.63;19.06
58373;BME280;44177;43.356;27.672;2023-07-29T10:07:18;97832.06;;;39.00;20.19
58373;BME280;44177;43.356;27.672;2023-07-29T10:09:45;97835.75;;;39.22;19.87
58373;BME280;44177;43.356;27.672;2023-07-29T10:12:11;97829.44;;;39.02;19.79
58373;BME280;44177;43.356;27.672;2023-07-29T10:14:38;97828.91;;;38.90;20.93
58373;BME280;44177;43.356;27.672;2023-07-29T10:17:05;97839.97;;;38.94;19.99
58373;BME280;44177;43.356;27.672;2023-07-29T10:19:31;97833.34;;;39.12;21.52
58373;BME280;44177;43.356;27.672;2023-07-29T10:21:59;97834.16;;;38.99;20.41
58373;BME280;44177;43.356;27.672;2023-07-29T10:24:32;97834.56;;;39.17;20.05
58373;BME280;44177;43.356;27.672;2023-07-29T10:27:00;97830.38;;;39.18;19.58
58373;BME280;44177;43.356;27.672;2023-07-29T10:29:31;97829.44;;;39.37;19.68
58373;BME280;44177;43.356;27.672;2023-07-29T10:32:01;97831.75;;;39.59;19.83
58373;BME280;44177;43.356;27.672;2023-07-29T10:34:30;97826.63;;;39.23;20.58
58373;BME280;44177;43.356;27.672;2023-07-29T10:36:56;97827.16;;;39.35;20.97
58373;BME280;44177;43.356;27.672;2023-07-29T10:39:24;97819.88;;;39.69;19.83
58373;BME280;44177;43.356;27.672;2023-07-29T10:41:58;97817.47;;;40.02;20.62
58373;BME280;44177;43.356;27.672;2023-07-29T10:47:15;97818.28;;;40.10;19.58
58373;BME280;44177;43.356;27.672;2023-07-29T10:49:41;97816.00;;;40.08;19.39
58373;BME280;44177;43.356;27.672;2023-07-29T10:52:07;97807.28;;;40.14;20.31
58373;BME280;44177;43.356;27.672;2023-07-29T10:54:50;97816.38;;;39.84;19.12
58373;BME280;44177;43.356;27.672;2023-07-29T10:57:33;97809.28;;;40.06;19.33
58373;BME280;44177;43.356;27.672;2023-07-29T11:00:00;97800.66;;;39.48;19.82
58373;BME280;44177;43.356;27.672;2023-07-29T11:02:31;97803.28;;;39.88;19.92
58373;BME280;44177;43.356;27.672;2023-07-29T11:04:58;97808.28;;;39.95;19.27
58373;BME280;44177;43.356;27.672;2023-07-29T11:07:27;97807.97;;;39.78;19.66
58373;BME280;44177;43.356;27.672;2023-07-29T11:10:01;97806.44;;;40.06;17.86
58373;BME280;44177;43.356;27.672;2023-07-29T11:15:03;97797.19;;;40.13;19.57
58373;BME280;44177;43.356;27.672;2023-07-29T11:17:32;97805.06;;;39.99;20.53
58373;BME280;44177;43.356;27.672;2023-07-29T11:20:01;97797.41;;;40.15;19.54
58373;BME280;44177;43.356;27.672;2023-07-29T11:22:28;97792.25;;;40.50;19.42
58373;BME280;44177;43.356;27.672;2023-07-29T11:24:54;97797.59;;;40.54;18.44
58373;BME280;44177;43.356;27.672;2023-07-29T11:27:20;97793.78;;;40.51;19.63
58373;BME280;44177;43.356;27.672;2023-07-29T11:29:47;97787.22;;;40.35;18.63
58373;BME280;44177;43.356;27.672;2023-07-29T11:32:12;97786.25;;;40.69;18.73
58373;BME280;44177;43.356;27.672;2023-07-29T11:34:38;97781.50;;;40.72;18.33
58373;BME280;44177;43.356;27.672;2023-07-29T11:37:05;97784.63;;;40.89;17.30
58373;BME280;44177;43.356;27.672;2023-07-29T11:39:32;97772.94;;;40.72;18.52
58373;BME280;44177;43.356;27.672;2023-07-29T11:41:58;97781.84;;;40.24;18.37
58373;BME280;44177;43.356;27.672;2023-07-29T11:44:24;97782.59;;;40.24;18.30
58373;BME280;44177;43.356;27.672;2023-07-29T11:46:50;97776.19;;;40.10;18.38
58373;BME280;44177;43.356;27.672;2023-07-29T11:49:16;97773.56;;;40.13;18.48
58373;BME280;44177;43.356;27.672;2023-07-29T11:51:42;97768.31;;;39.95;19.40
58373;BME280;44177;43.356;27.672;2023-07-29T11:54:08;97771.13;;;39.88;19.85
58373;BME280;44177;43.356;27.672;2023-07-29T11:56:35;97765.75;;;39.63;18.71
58373;BME280;44177;43.356;27.672;2023-07-29T11:59:01;97778.00;;;39.92;20.54
58373;BME280;44177;43.356;27.672;2023-07-29T12:01:28;97764.72;;;40.32;19.51
58373;BME280;44177;43.356;27.672;2023-07-29T12:03:55;97753.72;;;40.36;20.48
58373;BME280;44177;43.356;27.672;2023-07-29T12:06:22;97757.66;;;40.62;19.60
58373;BME280;44177;43.356;27.672;2023-07-29T12:08:49;97755.22;;;40.73;19.37
58373;BME280;44177;43.356;27.672;2023-07-29T12:11:16;97754.47;;;40.36;19.10
58373;BME280;44177;43.356;27.672;2023-07-29T12:13:42;97743.75;;;40.66;18.69
58373;BME280;44177;43.356;27.672;2023-07-29T12:16:07;97757.56;;;40.46;17.29
58373;BME280;44177;43.356;27.672;2023-07-29T12:18:33;97748.16;;;40.67;18.13
58373;BME280;44177;43.356;27.672;2023-07-29T12:20:59;97750.09;;;40.87;19.91
58373;BME280;44177;43.356;27.672;2023-07-29T12:23:26;97748.41;;;40.84;18.99
58373;BME280;44177;43.356;27.672;2023-07-29T12:25:56;97754.59;;;40.60;19.80
58373;BME280;44177;43.356;27.672;2023-07-29T12:28:22;97750.59;;;40.63;18.95
58373;BME280;44177;43.356;27.672;2023-07-29T12:30:48;97744.94;;;40.70;19.50
58373;BME280;44177;43.356;27.672;2023-07-29T12:35:56;97743.84;;;40.97;19.25
58373;BME280;44177;43.356;27.672;2023-07-29T12:38:22;97741.72;;;40.89;19.54
58373;BME280;44177;43.356;27.672;2023-07-29T12:40:47;97743.41;;;40.77;18.77
58373;BME280;44177;43.356;27.672;2023-07-29T12:43:13;97743.81;;;40.81;18.60
58373;BME280;44177;43.356;27.672;2023-07-29T12:45:38;97740.06;;;41.17;19.01
58373;BME280;44177;43.356;27.672;2023-07-29T12:48:08;97740.28;;;41.19;18.61
58373;BME280;44177;43.356;27.672;2023-07-29T12:50:34;97745.97;;;41.04;17.18
58373;BME280;44177;43.356;27.672;2023-07-29T12:52:59;97740.66;;;41.08;18.61
58373;BME280;44177;43.356;27.672;2023-07-29T12:55:25;97738.16;;;41.04;18.76
58373;BME280;44177;43.356;27.672;2023-07-29T12:57:50;97736.44;;;41.09;19.27
58373;BME280;44177;43.356;27.672;2023-07-29T13:00:17;97730.63;;;40.70;18.82
58373;BME280;44177;43.356;27.672;2023-07-29T13:02:43;97734.03;;;40.69;20.15
58373;BME280;44177;43.356;27.672;2023-07-29T13:05:10;97743.63;;;40.95;19.29
58373;BME280;44177;43.356;27.672;2023-07-29T13:07:40;97726.69;;;40.97;18.98